sensor_id;sensor_type;location;lat;lon;timestamp;P1;durP1;ratioP1;P2;durP2;ratioP2
14847;SDS011;7516;43.570;1.448;2022-12-18T00:00:59;7.00;;;5.57;;
14847;SDS011;7516;43.570;1.448;2022-12-18T00:03:30;7.47;;;5.50;;
14847;SDS011;7516;43.570;1.448;2022-12-18T00:05:58;6.83;;;5.53;;
14847;SDS011;7516;43.570;1.448;2022-12-18T00:08:28;7.00;;;5.50;;
14847;SDS011;7516;43.570;1.448;2022-12-18T00:10:55;7.73;;;6.17;;
14847;SDS011;7516;43.570;1.448;2022-12-18T00:13:30;7.57;;;6.07;;
14847;SDS011;7516;43.570;1.448;2022-12-18T00:16:00;8.20;;;6.17;;
14847;SDS011;7516;43.570;1.448;2022-12-18T00:18:29;9.00;;;6.60;;
14847;SDS011;7516;43.570;1.448;2022-12-18T00:20:58;9.27;;;6.03;;
14847;SDS011;7516;43.570;1.448;2022-12-18T00:23:27;9.10;;;6.30;;
14847;SDS011;7516;43.570;1.448;2022-12-18T00:25:58;8.33;;;6.60;;
14847;SDS011;7516;43.570;1.448;2022-12-18T00:28:26;6.67;;;5.77;;
14847;SDS011;7516;43.570;1.448;2022-12-18T00:30:59;8.70;;;6.07;;
14847;SDS011;7516;43.570;1.448;2022-12-18T00:33:27;7.50;;;6.37;;
14847;SDS011;7516;43.570;1.448;2022-12-18T00:35:59;8.47;;;6.37;;
14847;SDS011;7516;43.570;1.448;2022-12-18T00:38:28;7.67;;;6.20;;
14847;SDS011;7516;43.570;1.448;2022-12-18T00:40:56;9.00;;;6.13;;
14847;SDS011;7516;43.570;1.448;2022-12-18T00:43:24;7.43;;;5.93;;
14847;SDS011;7516;43.570;1.448;2022-12-18T00:45:50;8.27;;;6.27;;
14847;SDS011;7516;43.570;1.448;2022-12-18T00:48:18;8.67;;;6.37;;
14847;SDS011;7516;43.570;1.448;2022-12-18T00:50:47;7.70;;;6.23;;
14847;SDS011;7516;43.570;1.448;2022-12-18T00:53:14;8.47;;;6.50;;
14847;SDS011;7516;43.570;1.448;2022-12-18T00:55:44;7.63;;;6.00;;
14847;SDS011;7516;43.570;1.448;2022-12-18T00:58:12;8.57;;;7.03;;
14847;SDS011;7516;43.570;1.448;2022-12-18T01:00:42;8.70;;;6.60;;
14847;SDS011;7516;43.570;1.448;2022-12-18T01:03:10;7.73;;;5.77;;
14847;SDS011;7516;43.570;1.448;2022-12-18T01:05:40;8.07;;;6.10;;
14847;SDS011;7516;43.570;1.448;2022-12-18T01:08:08;8.63;;;6.37;;
14847;SDS011;7516;43.570;1.448;2022-12-18T01:10:35;7.87;;;6.10;;
14847;SDS011;7516;43.570;1.448;2022-12-18T01:13:07;6.80;;;5.73;;
14847;SDS011;7516;43.570;1.448;2022-12-18T01:15:35;6.97;;;5.87;;
14847;SDS011;7516;43.570;1.448;2022-12-18T01:18:05;7.87;;;5.57;;
14847;SDS011;7516;43.570;1.448;2022-12-18T01:20:33;7.53;;;5.60;;
14847;SDS011;7516;43.570;1.448;2022-12-18T01:23:00;8.03;;;5.73;;
14847;SDS011;7516;43.570;1.448;2022-12-18T01:25:28;7.00;;;5.93;;
14847;SDS011;7516;43.570;1.448;2022-12-18T01:27:56;8.27;;;5.80;;
14847;SDS011;7516;43.570;1.448;2022-12-18T01:30:24;7.37;;;5.47;;
14847;SDS011;7516;43.570;1.448;2022-12-18T01:32:52;9.03;;;6.13;;
14847;SDS011;7516;43.570;1.448;2022-12-18T01:35:20;9.27;;;6.43;;
14847;SDS011;7516;43.570;1.448;2022-12-18T01:37:47;7.40;;;5.53;;
14847;SDS011;7516;43.570;1.448;2022-12-18T01:40:15;7.87;;;6.07;;
14847;SDS011;7516;43.570;1.448;2022-12-18T01:42:42;10.20;;;6.63;;
14847;SDS011;7516;43.570;1.448;2022-12-18T01:45:25;9.47;;;6.37;;
14847;SDS011;7516;43.570;1.448;2022-12-18T01:47:55;10.33;;;7.07;;
14847;SDS011;7516;43.570;1.448;2022-12-18T01:50:25;7.50;;;5.93;;
14847;SDS011;7516;43.570;1.448;2022-12-18T01:52:56;8.30;;;6.23;;
14847;SDS011;7516;43.570;1.448;2022-12-18T01:55:28;8.17;;;6.03;;
14847;SDS011;7516;43.570;1.448;2022-12-18T01:57:58;8.73;;;6.63;;
14847;SDS011;7516;43.570;1.448;2022-12-18T02:00:28;8.67;;;6.50;;
14847;SDS011;7516;43.570;1.448;2022-12-18T02:02:55;8.63;;;6.63;;
14847;SDS011;7516;43.570;1.448;2022-12-18T02:05:26;9.07;;;6.57;;
14847;SDS011;7516;43.570;1.448;2022-12-18T02:08:08;8.70;;;6.50;;
14847;SDS011;7516;43.570;1.448;2022-12-18T02:10:42;9.37;;;6.40;;
14847;SDS011;7516;43.570;1.448;2022-12-18T02:13:16;7.70;;;6.10;;
14847;SDS011;7516;43.570;1.448;2022-12-18T02:15:54;8.20;;;6.27;;
14847;SDS011;7516;43.570;1.448;2022-12-18T02:18:30;8.50;;;6.40;;
14847;SDS011;7516;43.570;1.448;2022-12-18T02:21:04;8.87;;;6.30;;
14847;SDS011;7516;43.570;1.448;2022-12-18T02:23:44;8.67;;;6.33;;
14847;SDS011;7516;43.570;1.448;2022-12-18T02:26:19;8.17;;;6.87;;
14847;SDS011;7516;43.570;1.448;2022-12-18T02:28:53;8.27;;;6.43;;
14847;SDS011;7516;43.570;1.448;2022-12-18T02:31:26;8.27;;;6.03;;
14847;SDS011;7516;43.570;1.448;2022-12-18T02:33:56;8.30;;;6.30;;
14847;SDS011;7516;43.570;1.448;2022-12-18T02:36:27;7.87;;;6.43;;
14847;SDS011;7516;43.570;1.448;2022-12-18T02:38:57;7.90;;;6.27;;
14847;SDS011;7516;43.570;1.448;2022-12-18T02:41:28;8.70;;;6.17;;
14847;SDS011;7516;43.570;1.448;2022-12-18T02:43:59;8.10;;;6.13;;
14847;SDS011;7516;43.570;1.448;2022-12-18T02:46:29;9.80;;;6.03;;
14847;SDS011;7516;43.570;1.448;2022-12-18T02:49:04;8.20;;;5.97;;
14847;SDS011;7516;43.570;1.448;2022-12-18T02:51:40;7.60;;;6.20;;
14847;SDS011;7516;43.570;1.448;2022-12-18T02:54:20;8.70;;;6.37;;
14847;SDS011;7516;43.570;1.448;2022-12-18T02:57:15;8.07;;;6.13;;
14847;SDS011;7516;43.570;1.448;2022-12-18T02:59:48;8.43;;;6.70;;
14847;SDS011;7516;43.570;1.448;2022-12-18T03:02:24;8.03;;;6.37;;
14847;SDS011;7516;43.570;1.448;2022-12-18T03:05:01;7.87;;;6.20;;
14847;SDS011;7516;43.570;1.448;2022-12-18T03:07:35;8.30;;;6.20;;
14847;SDS011;7516;43.570;1.448;2022-12-18T03:10:08;8.47;;;6.47;;
14847;SDS011;7516;43.570;1.448;2022-12-18T03:12:41;8.53;;;6.73;;
14847;SDS011;7516;43.570;1.448;2022-12-18T03:15:14;9.43;;;6.57;;
14847;SDS011;7516;43.570;1.448;2022-12-18T03:17:46;10.03;;;7.10;;
14847;SDS011;7516;43.570;1.448;2022-12-18T03:20:19;8.87;;;6.20;;
14847;SDS011;7516;43.570;1.448;2022-12-18T03:22:51;8.40;;;6.83;;
14847;SDS011;7516;43.570;1.448;2022-12-18T03:25:21;8.33;;;6.47;;
14847;SDS011;7516;43.570;1.448;2022-12-18T03:27:53;9.40;;;6.67;;
14847;SDS011;7516;43.570;1.448;2022-12-18T03:30:24;8.20;;;6.53;;
14847;SDS011;7516;43.570;1.448;2022-12-18T03:32:56;9.13;;;6.57;;
14847;SDS011;7516;43.570;1.448;2022-12-18T03:35:29;8.53;;;6.50;;
14847;SDS011;7516;43.570;1.448;2022-12-18T03:38:01;8.70;;;6.87;;
14847;SDS011;7516;43.570;1.448;2022-12-18T03:40:29;11.03;;;7.33;;
14847;SDS011;7516;43.570;1.448;2022-12-18T03:43:08;9.53;;;7.00;;
14847;SDS011;7516;43.570;1.448;2022-12-18T03:45:41;9.77;;;6.97;;
14847;SDS011;7516;43.570;1.448;2022-12-18T03:48:16;9.27;;;6.70;;
14847;SDS011;7516;43.570;1.448;2022-12-18T03:50:51;10.30;;;7.13;;
14847;SDS011;7516;43.570;1.448;2022-12-18T03:53:26;9.17;;;7.27;;
14847;SDS011;7516;43.570;1.448;2022-12-18T03:56:02;9.07;;;7.07;;
14847;SDS011;7516;43.570;1.448;2022-12-18T03:58:34;10.10;;;7.03;;
14847;SDS011;7516;43.570;1.448;2022-12-18T04:01:04;11.30;;;7.57;;
14847;SDS011;7516;43.570;1.448;2022-12-18T04:03:38;9.20;;;7.30;;
14847;SDS011;7516;43.570;1.448;2022-12-18T04:06:07;10.03;;;7.50;;
14847;SDS011;7516;43.570;1.448;2022-12-18T04:08:36;10.93;;;7.27;;
14847;SDS011;7516;43.570;1.448;2022-12-18T04:11:05;11.23;;;7.60;;
14847;SDS011;7516;43.570;1.448;2022-12-18T04:13:35;9.93;;;7.53;;
14847;SDS011;7516;43.570;1.448;2022-12-18T04:16:03;10.60;;;7.27;;
14847;SDS011;7516;43.570;1.448;2022-12-18T04:18:31;9.83;;;7.37;;
14847;SDS011;7516;43.570;1.448;2022-12-18T04:20:59;9.80;;;7.07;;
14847;SDS011;7516;43.570;1.448;2022-12-18T04:23:26;8.17;;;7.20;;
14847;SDS011;7516;43.570;1.448;2022-12-18T04:25:54;9.67;;;7.07;;
14847;SDS011;7516;43.570;1.448;2022-12-18T04:28:22;8.73;;;7.03;;
14847;SDS011;7516;43.570;1.448;2022-12-18T04:30:50;9.67;;;6.93;;
14847;SDS011;7516;43.570;1.448;2022-12-18T04:33:18;9.03;;;7.07;;
14847;SDS011;7516;43.570;1.448;2022-12-18T04:35:46;10.17;;;7.83;;
14847;SDS011;7516;43.570;1.448;2022-12-18T04:38:13;9.30;;;6.73;;
14847;SDS011;7516;43.570;1.448;2022-12-18T04:40:41;7.87;;;6.50;;
14847;SDS011;7516;43.570;1.448;2022-12-18T04:43:08;9.23;;;7.13;;
14847;SDS011;7516;43.570;1.448;2022-12-18T04:45:36;8.20;;;6.57;;
14847;SDS011;7516;43.570;1.448;2022-12-18T04:48:05;9.23;;;7.17;;
14847;SDS011;7516;43.570;1.448;2022-12-18T04:50:32;9.53;;;6.63;;
14847;SDS011;7516;43.570;1.448;2022-12-18T04:53:00;10.30;;;7.00;;
14847;SDS011;7516;43.570;1.448;2022-12-18T04:55:27;8.20;;;6.73;;
14847;SDS011;7516;43.570;1.448;2022-12-18T04:57:55;7.83;;;6.47;;
14847;SDS011;7516;43.570;1.448;2022-12-18T05:00:23;9.17;;;6.60;;
14847;SDS011;7516;43.570;1.448;2022-12-18T05:02:50;8.33;;;6.30;;
14847;SDS011;7516;43.570;1.448;2022-12-18T05:05:19;7.73;;;6.63;;
14847;SDS011;7516;43.570;1.448;2022-12-18T05:07:46;8.80;;;6.80;;
14847;SDS011;7516;43.570;1.448;2022-12-18T05:10:14;8.23;;;6.07;;
14847;SDS011;7516;43.570;1.448;2022-12-18T05:12:42;8.03;;;6.00;;
14847;SDS011;7516;43.570;1.448;2022-12-18T05:15:38;7.90;;;5.90;;
14847;SDS011;7516;43.570;1.448;2022-12-18T05:18:07;6.97;;;5.30;;
14847;SDS011;7516;43.570;1.448;2022-12-18T05:20:34;7.63;;;5.77;;
14847;SDS011;7516;43.570;1.448;2022-12-18T05:23:02;6.97;;;4.30;;
14847;SDS011;7516;43.570;1.448;2022-12-18T05:25:29;5.70;;;3.87;;
14847;SDS011;7516;43.570;1.448;2022-12-18T05:27:57;6.50;;;4.70;;
14847;SDS011;7516;43.570;1.448;2022-12-18T05:30:24;5.97;;;4.70;;
14847;SDS011;7516;43.570;1.448;2022-12-18T05:32:54;5.40;;;4.57;;
14847;SDS011;7516;43.570;1.448;2022-12-18T05:35:21;7.30;;;4.80;;
14847;SDS011;7516;43.570;1.448;2022-12-18T05:37:49;7.27;;;4.37;;
14847;SDS011;7516;43.570;1.448;2022-12-18T05:40:16;6.93;;;4.30;;
14847;SDS011;7516;43.570;1.448;2022-12-18T05:42:44;5.50;;;3.87;;
14847;SDS011;7516;43.570;1.448;2022-12-18T05:45:12;6.33;;;3.90;;
14847;SDS011;7516;43.570;1.448;2022-12-18T05:47:39;5.70;;;4.10;;
14847;SDS011;7516;43.570;1.448;2022-12-18T05:50:08;5.63;;;4.03;;
14847;SDS011;7516;43.570;1.448;2022-12-18T05:52:36;4.57;;;3.90;;
14847;SDS011;7516;43.570;1.448;2022-12-18T05:55:04;3.53;;;2.57;;
14847;SDS011;7516;43.570;1.448;2022-12-18T05:57:31;6.80;;;4.47;;
14847;SDS011;7516;43.570;1.448;2022-12-18T05:59:59;4.97;;;3.70;;
14847;SDS011;7516;43.570;1.448;2022-12-18T06:02:26;9.93;;;2.20;;
14847;SDS011;7516;43.570;1.448;2022-12-18T06:04:54;4.00;;;2.90;;
14847;SDS011;7516;43.570;1.448;2022-12-18T06:07:23;6.30;;;3.63;;
14847;SDS011;7516;43.570;1.448;2022-12-18T06:09:51;5.33;;;3.23;;
14847;SDS011;7516;43.570;1.448;2022-12-18T06:12:18;2.50;;;1.70;;
14847;SDS011;7516;43.570;1.448;2022-12-18T06:14:46;3.50;;;2.40;;
14847;SDS011;7516;43.570;1.448;2022-12-18T06:17:13;2.47;;;1.73;;
14847;SDS011;7516;43.570;1.448;2022-12-18T06:19:41;5.87;;;4.03;;
14847;SDS011;7516;43.570;1.448;2022-12-18T06:22:08;3.03;;;2.23;;
14847;SDS011;7516;43.570;1.448;2022-12-18T06:24:37;5.90;;;3.87;;
14847;SDS011;7516;43.570;1.448;2022-12-18T06:27:05;5.77;;;3.97;;
14847;SDS011;7516;43.570;1.448;2022-12-18T06:29:32;4.30;;;2.90;;
14847;SDS011;7516;43.570;1.448;2022-12-18T06:32:00;3.83;;;3.10;;
14847;SDS011;7516;43.570;1.448;2022-12-18T06:34:27;3.20;;;2.70;;
14847;SDS011;7516;43.570;1.448;2022-12-18T06:36:59;2.20;;;1.50;;
14847;SDS011;7516;43.570;1.448;2022-12-18T06:39:27;7.50;;;4.20;;
14847;SDS011;7516;43.570;1.448;2022-12-18T06:41:56;5.53;;;3.20;;
14847;SDS011;7516;43.570;1.448;2022-12-18T06:44:23;3.70;;;2.77;;
14847;SDS011;7516;43.570;1.448;2022-12-18T06:46:51;5.50;;;4.00;;
14847;SDS011;7516;43.570;1.448;2022-12-18T06:49:19;4.90;;;3.60;;
14847;SDS011;7516;43.570;1.448;2022-12-18T06:51:46;6.03;;;3.93;;
14847;SDS011;7516;43.570;1.448;2022-12-18T06:54:14;4.87;;;4.00;;
14847;SDS011;7516;43.570;1.448;2022-12-18T06:56:41;5.00;;;3.83;;
14847;SDS011;7516;43.570;1.448;2022-12-18T06:59:12;6.67;;;4.30;;
14847;SDS011;7516;43.570;1.448;2022-12-18T07:01:40;4.40;;;3.87;;
14847;SDS011;7516;43.570;1.448;2022-12-18T07:04:08;5.47;;;4.00;;
14847;SDS011;7516;43.570;1.448;2022-12-18T07:06:35;6.40;;;4.20;;
14847;SDS011;7516;43.570;1.448;2022-12-18T07:09:03;5.87;;;4.33;;
14847;SDS011;7516;43.570;1.448;2022-12-18T07:11:32;6.10;;;4.27;;
14847;SDS011;7516;43.570;1.448;2022-12-18T07:13:59;6.23;;;4.50;;
14847;SDS011;7516;43.570;1.448;2022-12-18T07:16:28;4.87;;;4.07;;
14847;SDS011;7516;43.570;1.448;2022-12-18T07:18:56;7.33;;;4.10;;
14847;SDS011;7516;43.570;1.448;2022-12-18T07:21:24;5.53;;;4.10;;
14847;SDS011;7516;43.570;1.448;2022-12-18T07:23:51;5.37;;;3.93;;
14847;SDS011;7516;43.570;1.448;2022-12-18T07:26:20;6.47;;;4.70;;
14847;SDS011;7516;43.570;1.448;2022-12-18T07:28:48;6.47;;;4.60;;
14847;SDS011;7516;43.570;1.448;2022-12-18T07:31:16;5.40;;;4.53;;
14847;SDS011;7516;43.570;1.448;2022-12-18T07:33:47;7.37;;;4.90;;
14847;SDS011;7516;43.570;1.448;2022-12-18T07:36:15;7.70;;;5.27;;
14847;SDS011;7516;43.570;1.448;2022-12-18T07:38:42;7.30;;;5.00;;
14847;SDS011;7516;43.570;1.448;2022-12-18T07:41:13;7.40;;;5.13;;
14847;SDS011;7516;43.570;1.448;2022-12-18T07:43:40;6.00;;;4.70;;
14847;SDS011;7516;43.570;1.448;2022-12-18T07:46:08;6.37;;;4.90;;
14847;SDS011;7516;43.570;1.448;2022-12-18T07:48:38;6.17;;;4.50;;
14847;SDS011;7516;43.570;1.448;2022-12-18T07:51:07;5.17;;;3.60;;
14847;SDS011;7516;43.570;1.448;2022-12-18T07:53:35;6.67;;;4.00;;
14847;SDS011;7516;43.570;1.448;2022-12-18T07:56:04;5.07;;;3.87;;
14847;SDS011;7516;43.570;1.448;2022-12-18T07:58:33;5.77;;;3.70;;
14847;SDS011;7516;43.570;1.448;2022-12-18T08:01:04;4.77;;;2.90;;
14847;SDS011;7516;43.570;1.448;2022-12-18T08:03:33;4.83;;;3.40;;
14847;SDS011;7516;43.570;1.448;2022-12-18T08:06:01;4.93;;;3.73;;
14847;SDS011;7516;43.570;1.448;2022-12-18T08:08:31;4.27;;;3.33;;
14847;SDS011;7516;43.570;1.448;2022-12-18T08:11:00;5.17;;;3.93;;
14847;SDS011;7516;43.570;1.448;2022-12-18T08:13:28;2.37;;;2.07;;
14847;SDS011;7516;43.570;1.448;2022-12-18T08:15:56;6.20;;;4.37;;
14847;SDS011;7516;43.570;1.448;2022-12-18T08:18:24;7.03;;;3.53;;
14847;SDS011;7516;43.570;1.448;2022-12-18T08:20:51;5.33;;;3.00;;
14847;SDS011;7516;43.570;1.448;2022-12-18T08:23:19;5.30;;;3.60;;
14847;SDS011;7516;43.570;1.448;2022-12-18T08:25:48;3.90;;;1.33;;
14847;SDS011;7516;43.570;1.448;2022-12-18T08:28:16;3.90;;;1.40;;
14847;SDS011;7516;43.570;1.448;2022-12-18T08:30:43;2.87;;;2.13;;
14847;SDS011;7516;43.570;1.448;2022-12-18T08:33:11;2.67;;;1.93;;
14847;SDS011;7516;43.570;1.448;2022-12-18T08:35:39;3.30;;;1.93;;
14847;SDS011;7516;43.570;1.448;2022-12-18T08:38:06;5.10;;;3.23;;
14847;SDS011;7516;43.570;1.448;2022-12-18T08:40:34;1.13;;;0.70;;
14847;SDS011;7516;43.570;1.448;2022-12-18T08:43:02;1.93;;;1.30;;
14847;SDS011;7516;43.570;1.448;2022-12-18T08:45:47;3.40;;;2.13;;
14847;SDS011;7516;43.570;1.448;2022-12-18T08:48:15;1.53;;;1.30;;
14847;SDS011;7516;43.570;1.448;2022-12-18T08:50:43;1.83;;;0.97;;
14847;SDS011;7516;43.570;1.448;2022-12-18T08:53:19;3.43;;;2.53;;
14847;SDS011;7516;43.570;1.448;2022-12-18T08:55:54;2.00;;;1.60;;
14847;SDS011;7516;43.570;1.448;2022-12-18T08:58:25;3.67;;;2.67;;
14847;SDS011;7516;43.570;1.448;2022-12-18T09:00:52;3.80;;;2.60;;
14847;SDS011;7516;43.570;1.448;2022-12-18T09:03:20;2.40;;;1.87;;
14847;SDS011;7516;43.570;1.448;2022-12-18T09:05:48;4.40;;;2.03;;
14847;SDS011;7516;43.570;1.448;2022-12-18T09:08:16;1.87;;;1.30;;
14847;SDS011;7516;43.570;1.448;2022-12-18T09:10:44;3.83;;;2.43;;
14847;SDS011;7516;43.570;1.448;2022-12-18T09:13:12;3.73;;;2.37;;
14847;SDS011;7516;43.570;1.448;2022-12-18T09:15:42;3.30;;;2.00;;
14847;SDS011;7516;43.570;1.448;2022-12-18T09:18:11;2.23;;;1.47;;
14847;SDS011;7516;43.570;1.448;2022-12-18T09:20:39;3.93;;;3.03;;
14847;SDS011;7516;43.570;1.448;2022-12-18T09:23:07;3.13;;;1.77;;
14847;SDS011;7516;43.570;1.448;2022-12-18T09:25:35;3.83;;;2.47;;
14847;SDS011;7516;43.570;1.448;2022-12-18T09:28:04;3.47;;;2.30;;
14847;SDS011;7516;43.570;1.448;2022-12-18T09:30:33;4.10;;;2.73;;
14847;SDS011;7516;43.570;1.448;2022-12-18T09:33:04;3.10;;;1.90;;
14847;SDS011;7516;43.570;1.448;2022-12-18T09:35:32;4.33;;;2.80;;
14847;SDS011;7516;43.570;1.448;2022-12-18T09:38:02;2.63;;;1.73;;
14847;SDS011;7516;43.570;1.448;2022-12-18T09:40:32;2.63;;;1.33;;
14847;SDS011;7516;43.570;1.448;2022-12-18T09:43:03;4.43;;;2.63;;
14847;SDS011;7516;43.570;1.448;2022-12-18T09:45:33;2.93;;;2.20;;
14847;SDS011;7516;43.570;1.448;2022-12-18T09:48:09;2.37;;;1.60;;
14847;SDS011;7516;43.570;1.448;2022-12-18T09:50:42;2.40;;;1.77;;
14847;SDS011;7516;43.570;1.448;2022-12-18T09:53:12;4.40;;;2.70;;
14847;SDS011;7516;43.570;1.448;2022-12-18T09:55:45;3.43;;;2.33;;
14847;SDS011;7516;43.570;1.448;2022-12-18T09:58:16;4.33;;;2.63;;
14847;SDS011;7516;43.570;1.448;2022-12-18T10:00:46;3.13;;;2.10;;
14847;SDS011;7516;43.570;1.448;2022-12-18T10:03:15;4.00;;;2.37;;
14847;SDS011;7516;43.570;1.448;2022-12-18T10:05:44;2.77;;;1.90;;
14847;SDS011;7516;43.570;1.448;2022-12-18T10:08:21;4.37;;;2.43;;
14847;SDS011;7516;43.570;1.448;2022-12-18T10:10:54;3.87;;;2.27;;
14847;SDS011;7516;43.570;1.448;2022-12-18T10:13:28;2.87;;;1.73;;
14847;SDS011;7516;43.570;1.448;2022-12-18T10:16:09;4.00;;;2.40;;
14847;SDS011;7516;43.570;1.448;2022-12-18T10:18:56;3.37;;;1.50;;
14847;SDS011;7516;43.570;1.448;2022-12-18T10:21:34;4.37;;;3.10;;
14847;SDS011;7516;43.570;1.448;2022-12-18T10:24:12;2.30;;;1.57;;
14847;SDS011;7516;43.570;1.448;2022-12-18T10:26:48;4.90;;;2.43;;
14847;SDS011;7516;43.570;1.448;2022-12-18T10:29:16;2.90;;;1.93;;
14847;SDS011;7516;43.570;1.448;2022-12-18T10:31:44;2.13;;;1.67;;
14847;SDS011;7516;43.570;1.448;2022-12-18T10:34:13;1.97;;;1.20;;
14847;SDS011;7516;43.570;1.448;2022-12-18T10:36:41;4.20;;;2.13;;
14847;SDS011;7516;43.570;1.448;2022-12-18T10:39:16;3.87;;;1.93;;
14847;SDS011;7516;43.570;1.448;2022-12-18T10:41:44;4.00;;;1.93;;
14847;SDS011;7516;43.570;1.448;2022-12-18T10:44:15;2.33;;;1.37;;
14847;SDS011;7516;43.570;1.448;2022-12-18T10:46:44;2.13;;;1.20;;
14847;SDS011;7516;43.570;1.448;2022-12-18T10:49:21;4.27;;;2.00;;
14847;SDS011;7516;43.570;1.448;2022-12-18T10:51:50;4.10;;;2.60;;
14847;SDS011;7516;43.570;1.448;2022-12-18T10:54:30;3.20;;;2.10;;
14847;SDS011;7516;43.570;1.448;2022-12-18T10:57:13;2.77;;;1.90;;
14847;SDS011;7516;43.570;1.448;2022-12-18T10:59:49;2.10;;;1.60;;
14847;SDS011;7516;43.570;1.448;2022-12-18T11:02:25;4.23;;;2.23;;
14847;SDS011;7516;43.570;1.448;2022-12-18T11:04:56;2.30;;;1.70;;
14847;SDS011;7516;43.570;1.448;2022-12-18T11:07:23;2.77;;;2.00;;
14847;SDS011;7516;43.570;1.448;2022-12-18T11:09:59;2.50;;;1.40;;
14847;SDS011;7516;43.570;1.448;2022-12-18T11:12:28;1.73;;;1.37;;
14847;SDS011;7516;43.570;1.448;2022-12-18T11:14:56;3.37;;;1.77;;
14847;SDS011;7516;43.570;1.448;2022-12-18T11:17:27;3.33;;;2.13;;
14847;SDS011;7516;43.570;1.448;2022-12-18T11:19:58;1.90;;;1.30;;
14847;SDS011;7516;43.570;1.448;2022-12-18T11:22:28;1.27;;;1.03;;
14847;SDS011;7516;43.570;1.448;2022-12-18T11:24:57;1.87;;;1.07;;
14847;SDS011;7516;43.570;1.448;2022-12-18T11:27:27;3.50;;;2.20;;
14847;SDS011;7516;43.570;1.448;2022-12-18T11:30:06;3.57;;;1.93;;
14847;SDS011;7516;43.570;1.448;2022-12-18T11:32:35;2.67;;;1.63;;
14847;SDS011;7516;43.570;1.448;2022-12-18T11:35:13;3.47;;;1.63;;
14847;SDS011;7516;43.570;1.448;2022-12-18T11:37:46;2.80;;;1.77;;
14847;SDS011;7516;43.570;1.448;2022-12-18T11:40:18;3.63;;;1.90;;
14847;SDS011;7516;43.570;1.448;2022-12-18T11:42:53;2.30;;;1.80;;
14847;SDS011;7516;43.570;1.448;2022-12-18T11:45:28;2.53;;;1.93;;
14847;SDS011;7516;43.570;1.448;2022-12-18T11:47:59;2.00;;;1.27;;
14847;SDS011;7516;43.570;1.448;2022-12-18T11:50:34;3.40;;;2.13;;
14847;SDS011;7516;43.570;1.448;2022-12-18T11:53:11;2.03;;;1.63;;
14847;SDS011;7516;43.570;1.448;2022-12-18T11:55:40;4.03;;;2.00;;
14847;SDS011;7516;43.570;1.448;2022-12-18T11:58:17;2.93;;;1.77;;
14847;SDS011;7516;43.570;1.448;2022-12-18T12:00:57;2.93;;;1.70;;
14847;SDS011;7516;43.570;1.448;2022-12-18T12:06:31;1.87;;;1.27;;
14847;SDS011;7516;43.570;1.448;2022-12-18T12:09:08;1.40;;;1.17;;
14847;SDS011;7516;43.570;1.448;2022-12-18T12:11:48;1.87;;;1.27;;
14847;SDS011;7516;43.570;1.448;2022-12-18T12:14:37;2.13;;;1.50;;
14847;SDS011;7516;43.570;1.448;2022-12-18T12:17:18;2.30;;;1.50;;
14847;SDS011;7516;43.570;1.448;2022-12-18T12:19:56;3.60;;;2.17;;
14847;SDS011;7516;43.570;1.448;2022-12-18T12:22:34;3.07;;;2.30;;
14847;SDS011;7516;43.570;1.448;2022-12-18T12:25:16;4.17;;;1.70;;
14847;SDS011;7516;43.570;1.448;2022-12-18T12:28:02;2.80;;;1.83;;
14847;SDS011;7516;43.570;1.448;2022-12-18T12:30:41;2.43;;;1.30;;
14847;SDS011;7516;43.570;1.448;2022-12-18T12:33:20;1.87;;;1.53;;
14847;SDS011;7516;43.570;1.448;2022-12-18T12:35:57;2.87;;;1.90;;
14847;SDS011;7516;43.570;1.448;2022-12-18T12:38:35;1.90;;;1.70;;
14847;SDS011;7516;43.570;1.448;2022-12-18T12:41:08;1.60;;;1.20;;
14847;SDS011;7516;43.570;1.448;2022-12-18T12:43:53;4.10;;;2.60;;
14847;SDS011;7516;43.570;1.448;2022-12-18T12:46:25;4.03;;;3.00;;
14847;SDS011;7516;43.570;1.448;2022-12-18T12:48:56;2.60;;;1.90;;
14847;SDS011;7516;43.570;1.448;2022-12-18T12:51:26;3.00;;;1.87;;
14847;SDS011;7516;43.570;1.448;2022-12-18T12:53:57;4.87;;;2.83;;
14847;SDS011;7516;43.570;1.448;2022-12-18T12:56:28;3.17;;;2.03;;
14847;SDS011;7516;43.570;1.448;2022-12-18T12:59:05;3.03;;;2.03;;
14847;SDS011;7516;43.570;1.448;2022-12-18T13:01:40;4.30;;;2.80;;
14847;SDS011;7516;43.570;1.448;2022-12-18T13:04:26;4.17;;;2.00;;
14847;SDS011;7516;43.570;1.448;2022-12-18T13:07:01;3.63;;;2.43;;
14847;SDS011;7516;43.570;1.448;2022-12-18T13:09:34;6.47;;;3.33;;
14847;SDS011;7516;43.570;1.448;2022-12-18T13:12:37;2.43;;;1.70;;
14847;SDS011;7516;43.570;1.448;2022-12-18T13:15:21;4.07;;;1.77;;
14847;SDS011;7516;43.570;1.448;2022-12-18T13:18:11;4.03;;;1.77;;
14847;SDS011;7516;43.570;1.448;2022-12-18T13:20:42;1.97;;;1.60;;
14847;SDS011;7516;43.570;1.448;2022-12-18T13:29:05;4.87;;;2.00;;
14847;SDS011;7516;43.570;1.448;2022-12-18T13:34:46;3.13;;;2.23;;
14847;SDS011;7516;43.570;1.448;2022-12-18T13:43:23;1.63;;;1.30;;
14847;SDS011;7516;43.570;1.448;2022-12-18T13:46:02;4.60;;;3.13;;
14847;SDS011;7516;43.570;1.448;2022-12-18T13:48:32;3.77;;;2.33;;
14847;SDS011;7516;43.570;1.448;2022-12-18T13:51:03;3.90;;;3.17;;
14847;SDS011;7516;43.570;1.448;2022-12-18T13:53:34;2.10;;;1.30;;
14847;SDS011;7516;43.570;1.448;2022-12-18T13:56:05;5.13;;;2.80;;
14847;SDS011;7516;43.570;1.448;2022-12-18T13:58:33;4.17;;;2.07;;
14847;SDS011;7516;43.570;1.448;2022-12-18T14:01:02;2.23;;;1.53;;
14847;SDS011;7516;43.570;1.448;2022-12-18T14:03:29;2.73;;;2.37;;
14847;SDS011;7516;43.570;1.448;2022-12-18T14:06:04;2.37;;;1.50;;
14847;SDS011;7516;43.570;1.448;2022-12-18T14:08:36;2.40;;;1.77;;
14847;SDS011;7516;43.570;1.448;2022-12-18T14:11:07;2.60;;;2.00;;
14847;SDS011;7516;43.570;1.448;2022-12-18T14:13:46;4.03;;;2.80;;
14847;SDS011;7516;43.570;1.448;2022-12-18T14:16:15;4.70;;;2.97;;
14847;SDS011;7516;43.570;1.448;2022-12-18T14:18:44;3.37;;;2.43;;
14847;SDS011;7516;43.570;1.448;2022-12-18T14:21:19;2.53;;;2.00;;
14847;SDS011;7516;43.570;1.448;2022-12-18T14:23:49;4.23;;;2.30;;
14847;SDS011;7516;43.570;1.448;2022-12-18T14:26:31;2.70;;;2.10;;
14847;SDS011;7516;43.570;1.448;2022-12-18T14:29:00;2.13;;;1.60;;
14847;SDS011;7516;43.570;1.448;2022-12-18T14:31:45;3.83;;;1.70;;
14847;SDS011;7516;43.570;1.448;2022-12-18T14:34:14;4.00;;;2.53;;
14847;SDS011;7516;43.570;1.448;2022-12-18T14:36:51;2.93;;;1.73;;
14847;SDS011;7516;43.570;1.448;2022-12-18T14:39:20;4.40;;;1.77;;
14847;SDS011;7516;43.570;1.448;2022-12-18T14:41:50;4.43;;;2.70;;
14847;SDS011;7516;43.570;1.448;2022-12-18T14:44:18;4.00;;;3.40;;
14847;SDS011;7516;43.570;1.448;2022-12-18T14:46:49;4.80;;;2.73;;
14847;SDS011;7516;43.570;1.448;2022-12-18T14:49:19;4.23;;;3.50;;
14847;SDS011;7516;43.570;1.448;2022-12-18T14:51:51;3.00;;;2.13;;
14847;SDS011;7516;43.570;1.448;2022-12-18T14:54:20;3.67;;;2.10;;
14847;SDS011;7516;43.570;1.448;2022-12-18T14:56:51;6.70;;;3.23;;
14847;SDS011;7516;43.570;1.448;2022-12-18T14:59:25;3.73;;;2.10;;
14847;SDS011;7516;43.570;1.448;2022-12-18T15:01:58;2.63;;;1.70;;
14847;SDS011;7516;43.570;1.448;2022-12-18T15:04:30;4.20;;;1.87;;
14847;SDS011;7516;43.570;1.448;2022-12-18T15:07:13;2.30;;;1.80;;
14847;SDS011;7516;43.570;1.448;2022-12-18T15:10:00;1.53;;;1.10;;
14847;SDS011;7516;43.570;1.448;2022-12-18T15:12:33;2.00;;;1.33;;
14847;SDS011;7516;43.570;1.448;2022-12-18T15:15:02;4.83;;;3.57;;
14847;SDS011;7516;43.570;1.448;2022-12-18T15:17:32;4.03;;;2.17;;
14847;SDS011;7516;43.570;1.448;2022-12-18T15:20:01;2.07;;;1.40;;
14847;SDS011;7516;43.570;1.448;2022-12-18T15:22:35;1.60;;;1.30;;
14847;SDS011;7516;43.570;1.448;2022-12-18T15:25:03;1.93;;;1.53;;
14847;SDS011;7516;43.570;1.448;2022-12-18T15:27:53;2.63;;;1.27;;
14847;SDS011;7516;43.570;1.448;2022-12-18T15:30:22;4.97;;;3.00;;
14847;SDS011;7516;43.570;1.448;2022-12-18T15:32:52;4.00;;;2.97;;
14847;SDS011;7516;43.570;1.448;2022-12-18T15:35:43;2.73;;;1.80;;
14847;SDS011;7516;43.570;1.448;2022-12-18T15:38:10;8.13;;;3.73;;
14847;SDS011;7516;43.570;1.448;2022-12-18T15:40:38;5.17;;;3.47;;
14847;SDS011;7516;43.570;1.448;2022-12-18T15:43:07;5.97;;;3.50;;